createdAt,value
2019-03-20T00:01:48.752Z,4.50
2019-03-20T00:04:20.687Z,4.60
2019-03-20T00:06:53.266Z,4.60
2019-03-20T00:09:24.781Z,4.70
2019-03-20T00:11:56.733Z,4.80
2019-03-20T00:14:28.688Z,4.90
2019-03-20T00:16:59.339Z,5.00
2019-03-20T00:19:30.057Z,5.10
2019-03-20T00:22:03.602Z,5.10
2019-03-20T00:24:35.923Z,5.20
2019-03-20T00:27:07.001Z,5.30
2019-03-20T00:29:39.740Z,5.40
2019-03-20T00:32:16.774Z,5.50
2019-03-20T00:35:00.568Z,5.60
2019-03-20T00:37:23.377Z,5.70
2019-03-20T00:39:56.553Z,5.80
2019-03-20T00:42:27.289Z,5.90
2019-03-20T00:44:58.006Z,6.00
2019-03-20T00:47:28.665Z,6.00
2019-03-20T00:49:59.494Z,6.10
2019-03-20T00:52:37.586Z,6.20
2019-03-20T00:55:08.770Z,6.30
2019-03-20T00:57:41.414Z,6.40
2019-03-20T01:00:15.805Z,6.30
2019-03-20T01:02:48.749Z,6.30
2019-03-20T01:05:21.709Z,6.30
2019-03-20T01:07:54.821Z,6.40
2019-03-20T01:10:26.494Z,6.40
2019-03-20T01:12:58.633Z,6.40
2019-03-20T01:15:29.453Z,6.40
2019-03-20T01:18:02.294Z,6.50
2019-03-20T01:20:45.160Z,6.50
2019-03-20T01:23:21.279Z,6.50
2019-03-20T01:25:53.601Z,6.60
2019-03-20T01:28:24.286Z,6.60
2019-03-20T01:30:57.155Z,6.60
2019-03-20T01:33:28.043Z,6.70
2019-03-20T01:35:59.410Z,6.70
2019-03-20T01:38:32.921Z,6.80
2019-03-20T01:41:05.294Z,6.80
2019-03-20T01:43:36.772Z,6.80
2019-03-20T01:46:07.465Z,6.80
2019-03-20T01:48:40.782Z,6.90
2019-03-20T02:10:27.062Z,7.00
2019-03-20T02:13:03.243Z,7.00
2019-03-20T02:15:39.643Z,7.00
2019-03-20T02:18:10.900Z,7.00
2019-03-20T02:20:41.672Z,7.00
2019-03-20T02:23:14.101Z,7.00
2019-03-20T02:25:46.127Z,7.00
2019-03-20T02:28:16.882Z,7.00
2019-03-20T02:30:47.878Z,7.10
2019-03-20T02:33:19.689Z,7.10
2019-03-20T02:35:52.192Z,7.10
2019-03-20T02:38:22.909Z,7.10
2019-03-20T02:40:53.674Z,7.10
2019-03-20T02:43:25.183Z,7.00
2019-03-20T02:45:57.050Z,7.10
2019-03-20T02:48:27.734Z,7.10
2019-03-20T02:51:01.750Z,7.10
2019-03-20T02:53:37.599Z,7.10
2019-03-20T02:56:10.191Z,7.00
2019-03-20T02:58:40.878Z,7.10
2019-03-20T03:01:11.794Z,7.10
2019-03-20T03:03:42.533Z,7.10
2019-03-20T03:06:13.294Z,7.10
2019-03-20T03:08:44.121Z,7.20
2019-03-20T03:11:17.262Z,7.20
2019-03-20T03:13:48.057Z,7.30
2019-03-20T03:16:18.841Z,7.20
2019-03-20T03:18:49.675Z,7.20
2019-03-20T03:21:20.693Z,7.10
2019-03-20T03:23:51.663Z,7.10
2019-03-20T03:26:26.260Z,7.10
2019-03-20T03:28:58.350Z,7.10
2019-03-20T03:31:29.119Z,7.20
2019-03-20T03:33:59.815Z,7.20
2019-03-20T03:36:31.478Z,7.10
2019-03-20T03:39:02.224Z,7.10
2019-03-20T03:41:41.190Z,7.10
2019-03-20T03:44:12.252Z,7.20
2019-03-20T03:46:42.918Z,7.20
2019-03-20T03:49:13.683Z,7.20
2019-03-20T03:51:44.458Z,7.20
2019-03-20T03:54:37.872Z,7.20
2019-03-20T03:57:13.659Z,7.30
2019-03-20T03:59:44.409Z,7.20
2019-03-20T04:02:15.209Z,7.20
2019-03-20T04:04:46.023Z,7.20
2019-03-20T04:07:16.906Z,7.20
2019-03-20T04:09:52.296Z,7.20
2019-03-20T04:12:22.961Z,7.20
2019-03-20T04:14:53.724Z,7.20
2019-03-20T04:17:27.437Z,7.20
2019-03-20T04:19:58.239Z,7.20
2019-03-20T04:22:31.852Z,7.20
2019-03-20T04:25:15.234Z,7.20
2019-03-20T04:27:47.849Z,7.30
2019-03-20T04:30:19.886Z,7.30
2019-03-20T04:32:52.091Z,7.30
2019-03-20T04:35:24.577Z,7.30
2019-03-20T04:37:57.778Z,7.20
2019-03-20T04:40:30.287Z,7.20
2019-03-20T04:43:06.944Z,7.20
2019-03-20T04:45:41.977Z,7.20
2019-03-20T04:48:12.706Z,7.20
2019-03-20T04:50:43.649Z,7.20
2019-03-20T04:53:17.890Z,7.20
2019-03-20T04:55:48.678Z,7.10
2019-03-20T04:58:19.694Z,7.10
2019-03-20T05:00:51.053Z,7.10
2019-03-20T05:03:28.863Z,7.20
2019-03-20T05:05:59.601Z,7.20
2019-03-20T05:08:30.494Z,7.20
2019-03-20T05:11:09.390Z,7.20
2019-03-20T05:13:41.471Z,7.20
2019-03-20T05:16:12.158Z,7.10
2019-03-20T05:18:44.405Z,7.10
2019-03-20T05:21:16.058Z,7.10
2019-03-20T05:23:50.172Z,7.10
2019-03-20T05:26:23.470Z,7.10
2019-03-20T05:28:54.186Z,7.20
2019-03-20T05:31:25.295Z,7.20
2019-03-20T05:33:58.444Z,7.20
2019-03-20T05:36:29.267Z,7.30
2019-03-20T05:39:00.855Z,7.30
2019-03-20T05:41:32.906Z,7.40
2019-03-20T05:44:03.621Z,7.40
2019-03-20T05:46:36.727Z,7.50
2019-03-20T05:49:07.679Z,7.60
2019-03-20T05:51:38.421Z,7.60
2019-03-20T05:54:09.257Z,7.70
2019-03-20T05:56:41.443Z,7.70
2019-03-20T05:59:13.106Z,7.70
2019-03-20T06:01:43.876Z,7.70
2019-03-20T06:04:18.844Z,7.70
2019-03-20T06:06:51.961Z,7.70
2019-03-20T06:09:24.321Z,7.80
2019-03-20T06:11:56.476Z,7.80
2019-03-20T06:14:32.651Z,7.80
2019-03-20T06:17:24.801Z,7.80
2019-03-20T06:19:59.061Z,7.80
2019-03-20T06:22:31.403Z,7.90
2019-03-20T06:25:04.455Z,7.90
2019-03-20T06:27:35.386Z,8.00
2019-03-20T06:30:07.178Z,8.00
2019-03-20T06:32:37.915Z,8.00
2019-03-20T06:35:09.486Z,8.00
2019-03-20T06:37:40.473Z,8.00
2019-03-20T06:40:11.158Z,8.00
2019-03-20T06:42:45.616Z,8.10
2019-03-20T06:45:33.709Z,8.10
2019-03-20T06:48:04.881Z,8.20
2019-03-20T06:51:14.411Z,8.20
2019-03-20T06:53:46.829Z,8.20
2019-03-20T06:56:17.583Z,8.30
2019-03-20T06:58:48.318Z,8.30
2019-03-20T07:01:29.046Z,8.40
2019-03-20T07:04:19.805Z,8.40
2019-03-20T07:14:23.117Z,8.40
2019-03-20T07:16:55.551Z,8.50
2019-03-20T07:19:26.787Z,8.50
2019-03-20T07:21:57.653Z,8.40
2019-03-20T07:24:28.343Z,8.50
2019-03-20T07:26:59.782Z,8.50
2019-03-20T07:29:30.463Z,8.60
2019-03-20T07:32:01.282Z,8.60
2019-03-20T07:39:09.781Z,8.70
2019-03-20T07:41:40.805Z,8.70
2019-03-20T07:44:31.625Z,8.70
2019-03-20T07:47:04.758Z,8.80
2019-03-20T07:49:35.885Z,8.80
2019-03-20T07:52:06.858Z,8.80
2019-03-20T07:54:39.230Z,8.80
2019-03-20T07:57:13.280Z,8.90
2019-03-20T07:59:45.865Z,8.90
2019-03-20T08:02:19.660Z,8.90
2019-03-20T08:04:50.554Z,8.90
2019-03-20T08:07:22.577Z,9.00
2019-03-20T08:09:53.228Z,9.00
2019-03-20T08:13:36.095Z,9.00
2019-03-20T08:19:41.453Z,9.20
2019-03-20T08:25:30.245Z,9.50
2019-03-20T08:28:21.339Z,9.60
2019-03-20T08:30:52.346Z,9.60
2019-03-20T08:33:23.998Z,9.70
2019-03-20T08:35:54.777Z,9.70
2019-03-20T08:38:25.618Z,9.70
2019-03-20T08:40:56.449Z,9.80
2019-03-20T08:43:27.191Z,9.80
2019-03-20T08:45:59.018Z,9.70
2019-03-20T08:48:29.802Z,9.70
2019-03-20T08:51:00.505Z,9.70
2019-03-20T08:53:31.322Z,9.70
2019-03-20T08:56:02.096Z,9.70
2019-03-20T08:58:44.988Z,9.70
2019-03-20T09:01:27.850Z,9.80
2019-03-20T09:03:49.907Z,9.80
2019-03-20T09:06:20.649Z,9.90
2019-03-20T09:08:52.993Z,9.90
2019-03-20T09:11:27.797Z,10.00
2019-03-20T09:16:34.806Z,10.00
2019-03-20T09:19:05.579Z,10.00
2019-03-20T09:21:38.549Z,10.10
2019-03-20T09:24:09.206Z,10.10
2019-03-20T09:26:41.682Z,10.20
2019-03-20T09:29:18.650Z,10.20
2019-03-20T09:31:45.867Z,10.30
2019-03-20T09:34:17.681Z,10.30
2019-03-20T09:36:48.386Z,10.30
2019-03-20T09:39:19.153Z,10.30
2019-03-20T09:41:50.150Z,10.30
2019-03-20T09:44:20.945Z,10.30
2019-03-20T09:46:51.739Z,10.20
2019-03-20T09:49:22.507Z,10.20
2019-03-20T09:51:53.257Z,10.20
2019-03-20T09:54:25.062Z,10.20
2019-03-20T09:56:55.910Z,10.20
2019-03-20T09:59:28.590Z,10.20
2019-03-20T10:01:59.265Z,10.20
2019-03-20T10:04:31.517Z,10.30
2019-03-20T10:07:02.242Z,10.40
2019-03-20T10:09:33.022Z,10.40
2019-03-20T10:12:05.561Z,10.50
2019-03-20T10:14:36.229Z,10.60
2019-03-20T10:17:10.613Z,10.50
2019-03-20T10:19:42.920Z,10.50
2019-03-20T10:22:15.954Z,10.50
2019-03-20T10:24:47.586Z,10.50
2019-03-20T10:27:19.711Z,10.50
2019-03-20T10:29:50.505Z,10.40
2019-03-20T10:32:21.809Z,10.40
2019-03-20T10:34:54.054Z,10.30
2019-03-20T10:37:24.730Z,10.30
2019-03-20T10:39:55.473Z,10.30
2019-03-20T10:42:26.998Z,10.30
2019-03-20T10:44:58.210Z,10.30
2019-03-20T10:47:29.034Z,10.30
2019-03-20T10:49:59.735Z,10.30
2019-03-20T10:55:22.621Z,10.30
2019-03-20T10:57:53.485Z,10.40
2019-03-20T11:00:25.896Z,10.50
2019-03-20T11:03:02.018Z,10.50
2019-03-20T11:05:33.632Z,10.60
2019-03-20T11:08:04.598Z,10.60
2019-03-20T11:10:36.120Z,10.60
2019-03-20T11:13:08.718Z,10.70
2019-03-20T11:15:39.477Z,10.80
2019-03-20T11:18:10.243Z,10.80
2019-03-20T11:20:43.061Z,10.90
2019-03-20T11:23:13.717Z,11.00
2019-03-20T11:25:46.062Z,11.00
2019-03-20T11:28:16.945Z,11.00
2019-03-20T11:30:47.690Z,11.00
2019-03-20T11:33:21.747Z,11.10
2019-03-20T11:35:53.309Z,11.10
2019-03-20T11:38:24.031Z,11.10
2019-03-20T11:40:54.810Z,11.10
2019-03-20T11:43:26.246Z,11.20
2019-03-20T11:46:00.268Z,11.30
2019-03-20T11:48:33.331Z,11.30
2019-03-20T11:51:03.479Z,11.30
2019-03-20T11:53:35.085Z,11.30
2019-03-20T11:56:05.842Z,11.30
2019-03-20T11:58:36.516Z,11.30
2019-03-20T12:01:07.274Z,11.30
2019-03-20T12:03:38.086Z,11.30
2019-03-20T12:06:11.234Z,11.30
2019-03-20T12:08:44.394Z,11.30
2019-03-20T12:11:15.958Z,11.20
2019-03-20T12:13:46.763Z,11.20
2019-03-20T12:16:17.502Z,11.20
2019-03-20T12:18:48.189Z,11.10
2019-03-20T12:21:19.273Z,11.20
2019-03-20T12:23:51.362Z,11.10
2019-03-20T12:26:22.058Z,11.10
2019-03-20T12:28:53.961Z,11.10
2019-03-20T12:31:24.682Z,11.20
2019-03-20T12:33:56.997Z,11.20
2019-03-20T12:36:30.398Z,11.30
2019-03-20T12:39:03.022Z,11.30
2019-03-20T12:41:36.048Z,11.40
2019-03-20T12:44:09.057Z,11.40
2019-03-20T12:46:42.086Z,11.60
2019-03-20T12:49:13.566Z,11.70
2019-03-20T12:51:44.462Z,11.80
2019-03-20T12:54:16.653Z,11.80
2019-03-20T12:56:48.166Z,11.90
2019-03-20T12:59:24.377Z,11.90
2019-03-20T13:01:55.146Z,11.90
2019-03-20T13:04:25.993Z,12.00
2019-03-20T13:06:57.180Z,12.00
2019-03-20T13:09:28.141Z,12.00
2019-03-20T13:12:02.390Z,12.00
2019-03-20T13:14:33.281Z,12.00
2019-03-20T13:17:04.089Z,11.90
2019-03-20T13:19:34.795Z,11.90
2019-03-20T13:22:05.882Z,12.00
2019-03-20T13:24:36.733Z,12.00
2019-03-20T13:27:07.535Z,12.10
2019-03-20T13:29:42.534Z,12.10
2019-03-20T13:32:13.228Z,12.10
2019-03-20T13:34:44.071Z,12.00
2019-03-20T13:37:14.866Z,12.00
2019-03-20T13:39:46.033Z,12.00
2019-03-20T13:42:17.015Z,12.00
2019-03-20T13:44:49.439Z,12.00
2019-03-20T13:47:20.174Z,12.00
2019-03-20T13:49:50.868Z,12.00
2019-03-20T13:52:21.758Z,12.00
2019-03-20T13:54:53.382Z,12.10
2019-03-20T13:57:24.109Z,12.20
2019-03-20T13:59:55.346Z,12.40
2019-03-20T14:02:26.751Z,12.50
2019-03-20T14:04:57.834Z,12.40
2019-03-20T14:07:28.630Z,12.50
2019-03-20T14:10:00.259Z,12.50
2019-03-20T14:12:33.329Z,12.40
2019-03-20T14:15:03.552Z,12.30
2019-03-20T14:17:41.869Z,12.40
2019-03-20T14:20:14.840Z,12.40
2019-03-20T14:22:47.199Z,12.50
2019-03-20T14:25:17.915Z,12.50
2019-03-20T14:27:50.125Z,12.50
2019-03-20T14:30:24.458Z,12.50
2019-03-20T14:32:55.963Z,12.60
2019-03-20T14:35:26.731Z,12.50
2019-03-20T14:37:58.425Z,12.50
2019-03-20T14:40:36.074Z,12.50
2019-03-20T14:43:04.041Z,12.50
2019-03-20T14:45:47.555Z,12.50
2019-03-20T14:48:19.657Z,12.50
2019-03-20T14:50:50.455Z,12.50
2019-03-20T14:53:21.241Z,12.40
2019-03-20T14:55:51.978Z,12.30
2019-03-20T14:58:22.796Z,12.30
2019-03-20T15:00:55.167Z,12.20
2019-03-20T15:03:25.785Z,12.20
2019-03-20T15:05:56.704Z,12.30
2019-03-20T15:08:27.613Z,12.30
2019-03-20T15:10:58.452Z,12.30
2019-03-20T15:13:29.309Z,12.30
2019-03-20T15:16:03.539Z,12.30
2019-03-20T15:18:34.301Z,12.20
2019-03-20T15:21:05.247Z,12.30
2019-03-20T15:23:36.217Z,12.30
2019-03-20T15:26:06.985Z,12.40
2019-03-20T15:28:37.822Z,12.40
2019-03-20T15:31:08.696Z,12.30
2019-03-20T15:33:39.573Z,12.30
2019-03-20T15:36:11.945Z,12.30
2019-03-20T15:38:42.742Z,12.30
2019-03-20T15:41:14.038Z,12.30
2019-03-20T15:43:45.035Z,12.30
2019-03-20T15:46:16.470Z,12.30
2019-03-20T15:48:47.329Z,12.30
2019-03-20T15:51:18.018Z,12.30
2019-03-20T15:53:48.854Z,12.30
2019-03-20T15:56:19.637Z,12.30
2019-03-20T15:58:50.438Z,12.30
2019-03-20T16:01:23.358Z,12.30
2019-03-20T16:03:57.038Z,12.30
2019-03-20T16:06:31.328Z,12.30
2019-03-20T16:09:07.867Z,12.20
2019-03-20T16:11:41.149Z,12.20
2019-03-20T16:14:11.998Z,12.20
2019-03-20T16:16:45.525Z,12.20
2019-03-20T16:19:16.210Z,12.20
2019-03-20T16:21:46.864Z,12.20
2019-03-20T16:24:18.138Z,12.20
2019-03-20T16:26:49.043Z,12.20
2019-03-20T16:29:20.603Z,12.20
2019-03-20T16:31:51.551Z,12.10
2019-03-20T16:34:22.433Z,12.10
2019-03-20T16:36:53.238Z,12.10
2019-03-20T16:39:25.152Z,12.10
2019-03-20T16:41:56.815Z,12.10
2019-03-20T16:44:28.525Z,12.10
2019-03-20T16:47:02.003Z,12.10
2019-03-20T16:49:32.974Z,12.00
2019-03-20T16:52:03.957Z,12.00
2019-03-20T16:54:35.648Z,11.90
2019-03-20T16:57:06.402Z,11.90
2019-03-20T16:59:37.162Z,11.90
2019-03-20T17:02:08.933Z,11.90
2019-03-20T17:04:42.691Z,11.90
2019-03-20T17:07:13.474Z,11.80
2019-03-20T17:09:44.240Z,11.80
2019-03-20T17:12:15.091Z,11.80
2019-03-20T17:14:45.991Z,11.80
2019-03-20T17:17:16.718Z,11.80
2019-03-20T17:19:47.379Z,11.70
2019-03-20T17:22:18.999Z,11.80
2019-03-20T17:24:52.251Z,11.70
2019-03-20T17:27:27.370Z,11.80
2019-03-20T17:29:59.349Z,11.70
2019-03-20T17:32:30.786Z,11.70
2019-03-20T17:35:01.644Z,11.70
2019-03-20T17:37:33.401Z,11.70
2019-03-20T17:40:04.296Z,11.70
2019-03-20T17:42:35.003Z,11.70
2019-03-20T17:45:06.584Z,11.70
2019-03-20T17:47:37.362Z,11.60
2019-03-20T17:50:12.497Z,11.60
2019-03-20T17:52:45.164Z,11.60
2019-03-20T17:55:16.573Z,11.60
2019-03-20T17:57:48.990Z,11.60
2019-03-20T18:00:46.591Z,11.60
2019-03-20T18:03:17.338Z,11.60
2019-03-20T18:05:48.202Z,11.60
2019-03-20T18:08:22.123Z,11.60
2019-03-20T18:10:52.802Z,11.60
2019-03-20T18:13:23.686Z,11.50
2019-03-20T18:15:56.064Z,11.60
2019-03-20T18:18:29.995Z,11.60
2019-03-20T18:21:00.895Z,11.60
2019-03-20T18:23:31.598Z,11.50
2019-03-20T18:26:03.166Z,11.60
2019-03-20T18:28:34.110Z,11.50
2019-03-20T18:31:05.068Z,11.50
2019-03-20T18:33:36.066Z,11.50
2019-03-20T18:36:18.850Z,11.50
2019-03-20T18:38:49.630Z,11.50
2019-03-20T18:41:20.350Z,11.40
2019-03-20T18:43:51.114Z,11.40
2019-03-20T18:46:22.222Z,11.40
2019-03-20T18:48:53.026Z,11.40
2019-03-20T18:51:23.777Z,11.40
2019-03-20T18:53:54.622Z,11.30
2019-03-20T18:56:25.609Z,11.30
2019-03-20T18:58:58.509Z,11.30
2019-03-20T19:01:29.537Z,11.20
2019-03-20T19:04:00.270Z,11.20
2019-03-20T19:06:32.105Z,11.10
2019-03-20T19:09:07.630Z,11.10
2019-03-20T19:11:38.843Z,11.00
2019-03-20T19:14:10.410Z,11.00
2019-03-20T19:16:42.343Z,11.00
2019-03-20T19:19:13.251Z,11.00
2019-03-20T19:21:44.142Z,11.00
2019-03-20T19:24:14.932Z,11.00
2019-03-20T19:26:46.843Z,10.90
2019-03-20T19:29:17.694Z,10.90
2019-03-20T19:31:48.580Z,10.90
2019-03-20T19:34:23.329Z,10.90
2019-03-20T19:36:54.025Z,10.90
2019-03-20T19:39:26.390Z,10.90
2019-03-20T19:41:58.745Z,10.80
2019-03-20T19:44:29.845Z,10.80
2019-03-20T19:47:06.698Z,10.70
2019-03-20T19:49:48.315Z,10.70
2019-03-20T19:52:24.614Z,10.70
2019-03-20T19:55:04.284Z,10.60
2019-03-20T19:57:35.754Z,10.60
2019-03-20T20:00:07.818Z,10.50
2019-03-20T20:02:38.734Z,10.50
2019-03-20T20:05:15.790Z,10.40
2019-03-20T20:07:42.402Z,10.40
2019-03-20T20:10:13.450Z,10.30
2019-03-20T20:12:44.247Z,10.30
2019-03-20T20:15:17.413Z,10.30
2019-03-20T20:17:48.448Z,10.30
2019-03-20T20:20:20.182Z,10.20
2019-03-20T20:22:51.925Z,10.20
2019-03-20T20:25:22.889Z,10.20
2019-03-20T20:27:53.807Z,10.20
2019-03-20T20:30:24.802Z,10.20
2019-03-20T20:32:57.022Z,10.20
2019-03-20T20:35:28.058Z,10.20
2019-03-20T20:37:59.131Z,10.20
2019-03-20T20:40:29.967Z,10.20
2019-03-20T20:43:01.095Z,10.10
2019-03-20T20:45:31.886Z,10.10
2019-03-20T20:48:02.656Z,10.00
2019-03-20T20:50:33.429Z,10.00
2019-03-20T20:53:04.316Z,9.90
2019-03-20T20:55:35.226Z,9.80
2019-03-20T20:58:06.087Z,9.70
2019-03-20T21:00:36.983Z,9.70
2019-03-20T21:03:08.865Z,9.70
2019-03-20T21:05:39.706Z,9.70
2019-03-20T21:08:12.082Z,9.80
2019-03-20T21:10:42.835Z,9.80
2019-03-20T21:13:18.504Z,9.70
2019-03-20T21:15:52.199Z,9.70
2019-03-20T21:19:05.084Z,9.60
2019-03-20T21:22:22.427Z,9.60
2019-03-20T21:24:53.722Z,9.50
2019-03-20T21:28:02.813Z,9.40
2019-03-20T21:31:29.213Z,9.40
2019-03-20T21:34:53.667Z,9.30
2019-03-20T21:37:48.000Z,9.30
2019-03-20T21:40:20.441Z,9.20
2019-03-20T21:43:27.062Z,9.10
2019-03-20T21:46:33.790Z,9.10
2019-03-20T21:49:05.109Z,9.10
2019-03-20T21:51:36.387Z,9.00
2019-03-20T21:54:36.115Z,9.00
2019-03-20T21:57:34.134Z,8.90
2019-03-20T22:00:41.591Z,8.80
2019-03-20T22:03:13.406Z,8.80
2019-03-20T22:06:32.866Z,8.70
2019-03-20T22:09:33.249Z,8.60
2019-03-20T22:12:23.551Z,8.60
2019-03-20T22:15:24.509Z,8.60
2019-03-20T22:18:30.627Z,8.50
2019-03-20T22:21:34.238Z,8.50
2019-03-20T22:24:53.097Z,8.50
2019-03-20T22:27:37.820Z,8.50
2019-03-20T22:30:09.195Z,8.50
2019-03-20T22:33:20.877Z,8.40
2019-03-20T22:36:04.730Z,8.30
2019-03-20T22:39:21.754Z,8.20
2019-03-20T22:42:39.746Z,8.20
2019-03-20T22:45:50.583Z,8.20
2019-03-20T22:48:45.110Z,8.20
2019-03-20T22:51:40.226Z,8.10
2019-03-20T22:54:53.915Z,8.10
2019-03-20T22:57:52.443Z,8.10
2019-03-20T23:00:25.672Z,8.10
2019-03-20T23:03:12.190Z,8.10
2019-03-20T23:05:43.527Z,8.00
2019-03-20T23:08:14.517Z,8.00
2019-03-20T23:10:49.264Z,7.90
2019-03-20T23:13:24.108Z,7.90
2019-03-20T23:15:55.663Z,7.80
2019-03-20T23:18:27.176Z,7.80
2019-03-20T23:20:58.394Z,7.80
2019-03-20T23:23:30.923Z,7.80
2019-03-20T23:26:02.208Z,7.70
2019-03-20T23:28:33.571Z,7.60
2019-03-20T23:31:04.859Z,7.60
2019-03-20T23:33:36.211Z,7.50
2019-03-20T23:36:07.714Z,7.40
2019-03-20T23:38:38.962Z,7.40
2019-03-20T23:41:10.367Z,7.40
2019-03-20T23:43:52.184Z,7.40
2019-03-20T23:46:14.749Z,7.30
2019-03-20T23:48:50.153Z,7.30
2019-03-20T23:51:22.560Z,7.30
2019-03-20T23:53:57.754Z,7.30
2019-03-20T23:56:31.061Z,7.30
2019-03-20T23:59:02.425Z,7.20
